createdAt,value
2023-08-11T00:00:09.777Z,2.33
2023-08-11T00:02:39.217Z,2.40
2023-08-11T00:05:07.305Z,3.07
2023-08-11T00:07:34.549Z,2.83
2023-08-11T00:10:01.827Z,2.80
2023-08-11T00:12:28.861Z,3.17
2023-08-11T00:14:55.959Z,2.67
2023-08-11T00:17:22.961Z,2.67
2023-08-11T00:19:49.846Z,2.60
2023-08-11T00:22:16.625Z,2.70
2023-08-11T00:24:43.557Z,2.77
2023-08-11T00:27:10.745Z,3.00
2023-08-11T00:29:37.737Z,3.17
2023-08-11T00:32:05.152Z,3.13
2023-08-11T00:34:32.299Z,2.70
2023-08-11T00:36:59.179Z,3.10
2023-08-11T00:39:26.148Z,3.17
2023-08-11T00:41:52.972Z,2.80
2023-08-11T00:44:19.893Z,3.13
2023-08-11T00:46:47.351Z,3.03
2023-08-11T00:49:15.417Z,3.10
2023-08-11T00:51:43.297Z,2.70
2023-08-11T00:54:12.090Z,3.00
2023-08-11T00:56:45.430Z,2.90
2023-08-11T00:59:22.849Z,2.80
2023-08-11T01:01:50.257Z,2.80
2023-08-11T01:04:17.318Z,2.70
2023-08-11T01:06:48.137Z,2.93
2023-08-11T01:09:39.593Z,2.60
2023-08-11T01:12:24.892Z,2.90
2023-08-11T01:15:11.680Z,2.73
2023-08-11T01:17:42.273Z,2.80
2023-08-11T01:20:17.296Z,3.20
2023-08-11T01:22:55.289Z,2.50
2023-08-11T01:25:22.496Z,2.37
2023-08-11T01:28:05.274Z,2.90
2023-08-11T01:30:35.775Z,2.70
2023-08-11T01:33:02.692Z,2.50
2023-08-11T01:35:40.468Z,2.60
2023-08-11T01:38:10.689Z,2.13
2023-08-11T01:40:39.515Z,2.20
2023-08-11T01:43:08.819Z,2.50
2023-08-11T01:45:35.655Z,2.53
2023-08-11T01:48:03.890Z,2.47
2023-08-11T01:50:31.834Z,2.10
2023-08-11T01:52:58.936Z,2.23
2023-08-11T01:55:27.666Z,2.07
2023-08-11T01:57:59.060Z,2.30
2023-08-11T02:00:28.760Z,2.40
2023-08-11T02:02:57.804Z,2.90
2023-08-11T02:05:26.511Z,2.40
2023-08-11T02:07:54.839Z,2.47
2023-08-11T02:10:21.993Z,2.37
2023-08-11T02:12:49.472Z,2.50
2023-08-11T02:15:16.448Z,2.20
2023-08-11T02:17:43.766Z,2.30
2023-08-11T02:20:22.277Z,2.37
2023-08-11T02:22:50.458Z,2.20
2023-08-11T02:25:17.484Z,2.20
2023-08-11T02:27:45.219Z,2.20
2023-08-11T02:30:13.472Z,2.63
2023-08-11T02:32:42.591Z,2.10
2023-08-11T02:35:11.910Z,2.10
2023-08-11T02:37:39.024Z,2.13
2023-08-11T02:40:10.475Z,2.03
2023-08-11T02:42:46.872Z,2.30
2023-08-11T02:45:13.665Z,2.23
2023-08-11T02:47:40.879Z,2.30
2023-08-11T02:50:09.844Z,2.20
2023-08-11T02:52:37.654Z,2.10
2023-08-11T02:55:06.540Z,2.30
2023-08-11T02:57:34.307Z,2.13
2023-08-11T03:00:01.883Z,2.37
2023-08-11T03:02:28.997Z,2.13
2023-08-11T03:04:55.897Z,2.40
2023-08-11T03:07:22.737Z,2.50
2023-08-11T03:09:49.677Z,2.30
2023-08-11T03:12:16.800Z,2.20
2023-08-11T03:14:43.675Z,1.90
2023-08-11T03:17:11.651Z,2.23
2023-08-11T03:19:38.695Z,2.20
2023-08-11T03:22:05.783Z,2.30
2023-08-11T03:24:33.021Z,2.00
2023-08-11T03:27:00.020Z,2.20
2023-08-11T03:29:26.930Z,2.20
2023-08-11T03:31:54.132Z,2.47
2023-08-11T03:34:21.054Z,2.60
2023-08-11T03:36:47.820Z,2.83
2023-08-11T03:39:14.657Z,2.27
2023-08-11T03:41:41.420Z,1.90
2023-08-11T03:44:08.313Z,2.00
2023-08-11T03:46:35.679Z,2.20
2023-08-11T03:49:04.723Z,2.37
2023-08-11T03:51:31.617Z,2.30
2023-08-11T03:54:01.957Z,2.30
2023-08-11T03:56:29.904Z,2.17
2023-08-11T03:58:57.013Z,2.33
2023-08-11T04:01:24.086Z,2.20
2023-08-11T04:03:51.108Z,1.90
2023-08-11T04:06:17.849Z,2.03
2023-08-11T04:08:45.431Z,2.10
2023-08-11T04:11:12.672Z,2.57
2023-08-11T04:13:39.456Z,2.47
2023-08-11T04:16:06.308Z,2.40
2023-08-11T04:18:33.211Z,2.73
2023-08-11T04:21:00.215Z,2.33
2023-08-11T04:23:27.196Z,2.63
2023-08-11T04:25:54.265Z,2.50
2023-08-11T04:28:21.125Z,3.30
2023-08-11T04:30:47.903Z,2.73
2023-08-11T04:33:14.820Z,2.50
2023-08-11T04:35:41.849Z,2.50
2023-08-11T04:38:08.990Z,2.60
2023-08-11T04:40:35.812Z,2.50
2023-08-11T04:43:03.142Z,3.97
2023-08-11T04:45:30.112Z,2.87
2023-08-11T04:47:57.137Z,3.27
2023-08-11T04:50:24.355Z,2.80
2023-08-11T04:52:51.438Z,2.60
2023-08-11T04:55:18.854Z,2.53
2023-08-11T04:57:45.675Z,2.70
2023-08-11T05:00:17.650Z,2.83
2023-08-11T05:02:45.715Z,2.90
2023-08-11T05:05:13.084Z,2.60
2023-08-11T05:07:41.461Z,2.63
2023-08-11T05:10:09.014Z,2.60
2023-08-11T05:12:36.124Z,2.93
2023-08-11T05:15:04.883Z,2.90
2023-08-11T05:17:32.785Z,3.20
2023-08-11T05:19:59.964Z,2.37
2023-08-11T05:22:27.065Z,2.50
2023-08-11T05:24:54.144Z,2.90
2023-08-11T05:27:21.186Z,3.90
2023-08-11T05:29:49.497Z,5.00
2023-08-11T05:32:16.763Z,3.30
2023-08-11T05:34:43.817Z,3.20
2023-08-11T05:37:11.351Z,3.03
2023-08-11T05:39:42.100Z,2.97
2023-08-11T05:42:09.182Z,3.00
2023-08-11T05:44:36.556Z,3.07
2023-08-11T05:47:03.987Z,3.17
2023-08-11T05:49:30.832Z,3.20
2023-08-11T05:51:57.822Z,2.70
2023-08-11T05:54:24.750Z,2.73
2023-08-11T05:56:54.318Z,3.07
2023-08-11T05:59:24.810Z,3.43
2023-08-11T06:01:52.111Z,3.20
2023-08-11T06:04:19.148Z,2.77
2023-08-11T06:06:46.012Z,2.80
2023-08-11T06:09:12.887Z,3.10
2023-08-11T06:11:39.791Z,3.37
2023-08-11T06:14:06.643Z,2.60
2023-08-11T06:16:33.603Z,3.07
2023-08-11T06:19:00.400Z,3.00
2023-08-11T06:21:27.432Z,3.10
2023-08-11T06:23:54.732Z,3.03
2023-08-11T06:26:22.014Z,3.07
2023-08-11T06:28:49.869Z,3.20
2023-08-11T06:31:20.302Z,2.87
2023-08-11T06:33:47.738Z,3.13
2023-08-11T06:36:14.479Z,3.50
2023-08-11T06:38:42.089Z,3.50
2023-08-11T06:41:09.104Z,3.30
2023-08-11T06:43:35.887Z,3.00
2023-08-11T06:46:02.906Z,3.00
2023-08-11T06:48:29.804Z,2.90
2023-08-11T06:50:59.552Z,3.00
2023-08-11T06:53:26.525Z,2.70
2023-08-11T06:55:53.786Z,2.43
2023-08-11T06:58:22.169Z,2.80
2023-08-11T07:00:50.324Z,2.93
2023-08-11T07:03:17.354Z,3.20
2023-08-11T07:05:44.253Z,3.40
2023-08-11T07:08:11.277Z,3.60
2023-08-11T07:10:38.126Z,2.60
2023-08-11T07:13:04.865Z,3.10
2023-08-11T07:15:31.862Z,3.30
2023-08-11T07:17:58.791Z,3.40
2023-08-11T07:20:25.755Z,3.90
2023-08-11T07:22:52.953Z,3.40
2023-08-11T07:25:19.931Z,3.37
2023-08-11T07:27:46.765Z,3.30
2023-08-11T07:30:13.659Z,3.23
2023-08-11T07:32:40.582Z,3.77
2023-08-11T07:35:07.895Z,3.13
2023-08-11T07:37:34.924Z,3.53
2023-08-11T07:40:01.934Z,3.20
2023-08-11T07:42:28.655Z,3.60
2023-08-11T07:44:55.529Z,3.33
2023-08-11T07:47:22.565Z,3.53
2023-08-11T07:49:52.365Z,3.43
2023-08-11T07:52:19.250Z,3.33
2023-08-11T07:54:46.262Z,3.83
2023-08-11T07:57:13.192Z,3.47
2023-08-11T07:59:40.160Z,3.60
2023-08-11T08:02:08.791Z,3.47
2023-08-11T08:04:35.580Z,3.93
2023-08-11T08:07:02.638Z,3.40
2023-08-11T08:09:30.088Z,3.40
2023-08-11T08:11:56.907Z,3.40
2023-08-11T08:14:23.676Z,4.00
2023-08-11T08:16:50.516Z,3.50
2023-08-11T08:19:18.362Z,3.43
2023-08-11T08:21:45.343Z,3.97
2023-08-11T08:24:12.687Z,4.03
2023-08-11T08:26:39.559Z,3.47
2023-08-11T08:29:06.560Z,3.83
2023-08-11T08:31:33.919Z,3.67
2023-08-11T08:34:01.348Z,4.43
2023-08-11T08:36:28.494Z,3.73
2023-08-11T08:38:55.445Z,3.50
2023-08-11T08:41:29.238Z,3.87
2023-08-11T08:43:57.333Z,3.97
2023-08-11T08:46:29.906Z,3.50
2023-08-11T08:49:31.161Z,3.53
2023-08-11T08:51:58.704Z,4.10
2023-08-11T08:54:25.729Z,3.17
2023-08-11T08:56:53.717Z,3.57
2023-08-11T08:59:21.116Z,3.63
2023-08-11T09:01:48.561Z,3.90
2023-08-11T09:04:17.051Z,3.73
2023-08-11T09:06:45.327Z,3.40
2023-08-11T09:09:14.129Z,3.70
2023-08-11T09:11:40.959Z,3.30
2023-08-11T09:14:09.101Z,3.70
2023-08-11T09:16:39.847Z,3.27
2023-08-11T09:19:11.511Z,3.70
2023-08-11T09:21:39.057Z,3.97
2023-08-11T09:24:10.494Z,4.40
2023-08-11T09:26:37.347Z,3.23
2023-08-11T09:29:05.536Z,3.40
2023-08-11T09:31:32.415Z,3.50
2023-08-11T09:34:15.904Z,3.43
2023-08-11T09:36:46.465Z,3.87
2023-08-11T09:39:13.549Z,3.50
2023-08-11T09:41:42.342Z,3.43
2023-08-11T09:44:10.092Z,3.63
2023-08-11T09:46:38.883Z,3.70
2023-08-11T09:49:07.200Z,3.63
2023-08-11T09:51:39.870Z,4.07
2023-08-11T09:54:09.486Z,3.77
2023-08-11T09:56:42.001Z,4.20
2023-08-11T09:59:19.550Z,3.50
2023-08-11T10:01:47.596Z,3.80
2023-08-11T10:04:22.503Z,3.50
2023-08-11T10:06:52.960Z,3.03
2023-08-11T10:09:23.812Z,3.07
2023-08-11T10:11:52.503Z,3.70
2023-08-11T10:14:22.429Z,3.00
2023-08-11T10:16:49.378Z,2.70
2023-08-11T10:19:16.616Z,2.83
2023-08-11T10:21:43.693Z,3.20
2023-08-11T10:24:11.705Z,2.53
2023-08-11T10:26:39.183Z,2.70
2023-08-11T10:29:06.217Z,2.43
2023-08-11T10:31:34.454Z,2.80
2023-08-11T10:34:07.368Z,2.50
2023-08-11T10:36:34.752Z,2.30
2023-08-11T10:39:07.014Z,1.97
2023-08-11T10:41:35.147Z,2.10
2023-08-11T10:44:02.001Z,1.70
2023-08-11T10:46:33.214Z,1.77
2023-08-11T10:49:07.481Z,1.80
2023-08-11T10:51:35.317Z,2.03
2023-08-11T10:54:19.201Z,1.80
2023-08-11T10:56:47.074Z,2.17
2023-08-11T10:59:25.636Z,1.77
2023-08-11T11:01:56.809Z,1.57
2023-08-11T11:04:33.558Z,1.40
2023-08-11T11:07:02.159Z,1.30
2023-08-11T11:09:29.767Z,1.23
2023-08-11T11:11:57.937Z,1.30
2023-08-11T11:14:28.454Z,1.10
2023-08-11T11:17:00.301Z,1.10
2023-08-11T11:19:27.854Z,0.90
2023-08-11T11:21:54.869Z,1.10
2023-08-11T11:24:21.741Z,0.80
2023-08-11T11:26:49.277Z,0.80
2023-08-11T11:29:16.290Z,1.00
2023-08-11T11:31:43.598Z,1.17
2023-08-11T11:34:10.702Z,0.83
2023-08-11T11:36:38.363Z,0.70
2023-08-11T11:39:06.290Z,0.80
2023-08-11T11:41:33.424Z,0.70
2023-08-11T11:44:00.648Z,0.80
2023-08-11T11:46:29.997Z,1.00
2023-08-11T11:48:57.401Z,0.97
2023-08-11T11:51:26.866Z,0.90
2023-08-11T11:53:56.328Z,0.93
2023-08-11T11:56:23.517Z,1.00
2023-08-11T11:58:51.105Z,1.20
2023-08-11T12:01:22.706Z,0.80
2023-08-11T12:03:51.840Z,1.10
2023-08-11T12:06:20.384Z,0.93
2023-08-11T12:08:50.585Z,1.00
2023-08-11T12:11:26.967Z,1.10
2023-08-11T12:13:54.170Z,1.20
2023-08-11T12:16:21.476Z,1.00
2023-08-11T12:18:48.914Z,1.00
2023-08-11T12:21:18.659Z,1.10
2023-08-11T12:23:45.607Z,1.20
2023-08-11T12:26:12.537Z,1.20
2023-08-11T12:28:40.656Z,1.20
2023-08-11T12:31:09.851Z,1.17
2023-08-11T12:33:39.807Z,1.07
2023-08-11T12:36:06.939Z,1.20
2023-08-11T12:38:34.746Z,1.03
2023-08-11T12:41:01.552Z,1.23
2023-08-11T12:43:28.384Z,1.03
2023-08-11T12:45:55.293Z,0.90
2023-08-11T12:48:22.544Z,1.20
2023-08-11T12:50:49.570Z,1.20
2023-08-11T12:53:16.342Z,1.17
2023-08-11T12:55:43.299Z,1.00
2023-08-11T12:58:10.220Z,1.20
2023-08-11T13:00:37.627Z,1.30
2023-08-11T13:03:05.453Z,1.20
2023-08-11T13:05:32.397Z,1.40
2023-08-11T13:07:59.455Z,1.27
2023-08-11T13:10:26.690Z,1.00
2023-08-11T13:12:53.610Z,1.20
2023-08-11T13:15:21.138Z,0.90
2023-08-11T13:17:48.133Z,1.27
2023-08-11T13:20:15.067Z,1.20
2023-08-11T13:22:42.528Z,1.27
2023-08-11T13:25:10.244Z,1.20
2023-08-11T13:27:38.461Z,1.00
2023-08-11T13:30:09.378Z,1.03
2023-08-11T13:32:36.738Z,1.10
2023-08-11T13:35:04.392Z,1.00
2023-08-11T13:37:31.165Z,1.10
2023-08-11T13:40:01.666Z,1.27
2023-08-11T13:42:29.048Z,1.20
2023-08-11T13:44:55.950Z,1.20
2023-08-11T13:47:23.081Z,1.27
2023-08-11T13:49:49.855Z,1.20
2023-08-11T13:52:17.021Z,1.10
2023-08-11T13:54:59.730Z,1.20
2023-08-11T13:57:27.108Z,1.27
2023-08-11T13:59:58.839Z,1.30
2023-08-11T14:02:28.014Z,1.20
2023-08-11T14:04:55.889Z,1.20
2023-08-11T14:07:31.723Z,1.33
2023-08-11T14:10:01.615Z,1.30
2023-08-11T14:12:28.639Z,1.20
2023-08-11T14:14:55.621Z,0.97
2023-08-11T14:17:22.560Z,1.30
2023-08-11T14:19:49.698Z,1.40
2023-08-11T14:22:16.588Z,1.10
2023-08-11T14:24:43.578Z,1.30
2023-08-11T14:27:10.526Z,1.30
2023-08-11T14:29:37.517Z,1.27
2023-08-11T14:32:18.848Z,1.30
2023-08-11T14:34:51.504Z,1.30
2023-08-11T14:37:18.614Z,1.30
2023-08-11T14:39:46.624Z,1.40
2023-08-11T14:42:15.250Z,1.17
2023-08-11T14:44:42.893Z,1.27
2023-08-11T14:47:14.967Z,1.30
2023-08-11T14:49:45.771Z,1.20
2023-08-11T14:52:14.484Z,1.57
2023-08-11T14:54:41.866Z,1.40
2023-08-11T14:57:11.305Z,1.10
2023-08-11T14:59:39.510Z,1.40
2023-08-11T15:02:06.396Z,1.30
2023-08-11T15:04:33.295Z,1.40
2023-08-11T15:07:00.293Z,1.20
2023-08-11T15:09:28.139Z,1.13
2023-08-11T15:11:54.945Z,1.10
2023-08-11T15:14:21.867Z,1.33
2023-08-11T15:16:48.724Z,1.20
2023-08-11T15:19:16.156Z,1.10
2023-08-11T15:21:43.380Z,1.50
2023-08-11T15:24:10.271Z,1.20
2023-08-11T15:26:39.465Z,1.33
2023-08-11T15:29:06.757Z,1.20
2023-08-11T15:31:33.735Z,1.20
2023-08-11T15:34:00.835Z,1.50
2023-08-11T15:36:27.763Z,1.50
2023-08-11T15:38:54.569Z,1.27
2023-08-11T15:41:21.394Z,1.50
2023-08-11T15:43:48.503Z,1.27
2023-08-11T15:46:15.596Z,1.27
2023-08-11T15:48:42.562Z,1.40
2023-08-11T15:51:09.659Z,1.17
2023-08-11T15:53:36.682Z,1.30
2023-08-11T15:56:04.419Z,1.30
2023-08-11T15:58:31.437Z,1.30
2023-08-11T16:00:59.460Z,1.20
2023-08-11T16:03:27.111Z,1.47
2023-08-11T16:05:54.387Z,1.30
2023-08-11T16:08:22.693Z,1.33
2023-08-11T16:10:49.635Z,1.30
2023-08-11T16:13:16.786Z,1.10
2023-08-11T16:15:43.801Z,1.43
2023-08-11T16:18:11.761Z,1.20
2023-08-11T16:20:38.898Z,1.20
2023-08-11T16:23:05.955Z,1.43
2023-08-11T16:25:33.067Z,1.00
2023-08-11T16:28:00.941Z,1.20
2023-08-11T16:30:27.969Z,1.20
2023-08-11T16:32:56.278Z,1.30
2023-08-11T16:35:23.921Z,1.00
2023-08-11T16:37:51.185Z,2.00
2023-08-11T16:40:18.295Z,2.10
2023-08-11T16:42:45.192Z,1.50
2023-08-11T16:45:12.075Z,1.03
2023-08-11T16:47:39.056Z,1.60
2023-08-11T16:50:06.568Z,1.30
2023-08-11T16:52:33.328Z,1.50
2023-08-11T16:55:00.321Z,3.23
2023-08-11T16:57:27.233Z,2.23
2023-08-11T16:59:54.603Z,1.47
2023-08-11T17:02:21.519Z,1.37
2023-08-11T17:04:48.854Z,1.20
2023-08-11T17:07:15.776Z,1.30
2023-08-11T17:09:42.660Z,1.10
2023-08-11T17:12:10.933Z,2.00
2023-08-11T17:14:38.208Z,1.70
2023-08-11T17:17:05.141Z,1.30
2023-08-11T17:19:32.973Z,1.20
2023-08-11T17:21:59.964Z,1.13
2023-08-11T17:24:26.895Z,1.20
2023-08-11T17:26:53.879Z,1.13
2023-08-11T17:29:20.974Z,1.00
2023-08-11T17:31:48.039Z,1.23
2023-08-11T17:34:15.034Z,1.60
2023-08-11T17:36:41.917Z,1.30
2023-08-11T17:39:08.790Z,1.40
2023-08-11T17:41:35.740Z,1.73
2023-08-11T17:44:02.617Z,1.80
2023-08-11T17:46:29.687Z,1.30
2023-08-11T17:48:56.908Z,2.10
2023-08-11T17:51:25.323Z,1.70
2023-08-11T17:54:03.706Z,1.70
2023-08-11T17:56:37.208Z,1.67
2023-08-11T17:59:04.283Z,1.57
2023-08-11T18:01:32.984Z,1.77
2023-08-11T18:04:05.052Z,1.50
2023-08-11T18:06:34.850Z,1.30
2023-08-11T18:09:02.173Z,1.70
2023-08-11T18:11:29.624Z,1.43
2023-08-11T18:13:57.291Z,1.30
2023-08-11T18:16:24.635Z,1.83
2023-08-11T18:18:51.448Z,1.43
2023-08-11T18:21:20.856Z,1.50
2023-08-11T18:23:48.665Z,1.40
2023-08-11T18:26:17.385Z,1.50
2023-08-11T18:28:44.472Z,1.60
2023-08-11T18:31:11.488Z,1.70
2023-08-11T18:33:38.597Z,1.47
2023-08-11T18:36:05.667Z,1.90
2023-08-11T18:38:32.524Z,1.70
2023-08-11T18:40:59.442Z,1.70
2023-08-11T18:43:27.957Z,2.07
2023-08-11T18:45:54.879Z,2.17
2023-08-11T18:48:22.193Z,2.37
2023-08-11T18:50:49.377Z,3.07
2023-08-11T18:53:16.480Z,2.67
2023-08-11T18:55:43.792Z,2.27
2023-08-11T18:58:10.792Z,2.17
2023-08-11T19:00:39.498Z,2.73
2023-08-11T19:03:06.510Z,2.80
2023-08-11T19:05:35.263Z,2.70
2023-08-11T19:08:03.357Z,2.37
2023-08-11T19:10:30.292Z,3.00
2023-08-11T19:12:57.508Z,2.83
2023-08-11T19:15:24.409Z,2.83
2023-08-11T19:17:51.307Z,3.10
2023-08-11T19:20:18.551Z,3.80
2023-08-11T19:22:45.506Z,5.20
2023-08-11T19:25:12.889Z,6.53
2023-08-11T19:27:40.117Z,8.63
2023-08-11T19:30:08.182Z,7.87
2023-08-11T19:32:36.228Z,7.17
2023-08-11T19:35:03.692Z,6.53
2023-08-11T19:37:30.842Z,5.90
2023-08-11T19:39:57.844Z,6.33
2023-08-11T19:42:24.880Z,5.60
2023-08-11T19:44:51.925Z,4.73
2023-08-11T19:47:18.953Z,3.80
2023-08-11T19:49:45.999Z,3.60
2023-08-11T19:52:13.438Z,2.83
2023-08-11T19:54:40.703Z,2.60
2023-08-11T19:57:07.702Z,3.00
2023-08-11T19:59:35.029Z,2.93
2023-08-11T20:02:01.959Z,2.60
2023-08-11T20:04:28.856Z,3.10
2023-08-11T20:06:56.185Z,2.43
2023-08-11T20:09:25.773Z,2.30
2023-08-11T20:11:53.029Z,2.60
2023-08-11T20:14:20.125Z,2.73
2023-08-11T20:16:47.684Z,2.40
2023-08-11T20:19:14.435Z,2.40
2023-08-11T20:21:42.797Z,2.40
2023-08-11T20:24:10.962Z,2.60
2023-08-11T20:26:37.848Z,2.40
2023-08-11T20:29:05.163Z,2.20
2023-08-11T20:31:34.317Z,2.50
2023-08-11T20:34:01.568Z,2.63
2023-08-11T20:36:28.858Z,2.20
2023-08-11T20:38:56.256Z,2.90
2023-08-11T20:41:23.206Z,2.60
2023-08-11T20:43:50.325Z,2.87
2023-08-11T20:46:17.457Z,3.20
2023-08-11T20:48:44.503Z,3.00
2023-08-11T20:51:13.088Z,3.63
2023-08-11T20:53:40.225Z,4.33
2023-08-11T20:56:09.366Z,4.30
2023-08-11T20:58:36.877Z,3.07
2023-08-11T21:01:04.166Z,3.40
2023-08-11T21:03:31.314Z,2.93
2023-08-11T21:05:58.378Z,2.93
2023-08-11T21:08:25.272Z,2.93
2023-08-11T21:10:52.458Z,2.67
2023-08-11T21:13:19.351Z,2.77
2023-08-11T21:15:46.244Z,2.30
2023-08-11T21:18:13.513Z,2.40
2023-08-11T21:20:40.469Z,2.37
2023-08-11T21:23:07.889Z,2.60
2023-08-11T21:25:35.598Z,2.60
2023-08-11T21:28:02.589Z,2.33
2023-08-11T21:30:29.516Z,2.10
2023-08-11T21:32:56.906Z,2.50
2023-08-11T21:35:23.962Z,2.70
2023-08-11T21:37:50.710Z,2.50
2023-08-11T21:40:18.090Z,2.40
2023-08-11T21:42:46.072Z,2.60
2023-08-11T21:45:13.022Z,2.43
2023-08-11T21:47:40.084Z,2.70
2023-08-11T21:50:08.436Z,2.70
2023-08-11T21:52:35.701Z,3.10
2023-08-11T21:55:04.491Z,3.13
2023-08-11T21:57:32.653Z,2.90
2023-08-11T22:00:00.622Z,2.90
2023-08-11T22:02:27.781Z,3.20
2023-08-11T22:04:54.788Z,3.50
2023-08-11T22:07:21.688Z,3.57
2023-08-11T22:09:48.565Z,3.30
2023-08-11T22:12:15.490Z,3.40
2023-08-11T22:14:42.574Z,3.80
2023-08-11T22:17:11.499Z,3.57
2023-08-11T22:19:41.154Z,3.60
2023-08-11T22:22:08.711Z,2.90
2023-08-11T22:24:41.054Z,3.20
2023-08-11T22:27:12.242Z,3.17
2023-08-11T22:29:39.679Z,3.80
2023-08-11T22:32:06.748Z,3.83
2023-08-11T22:34:33.828Z,3.80
2023-08-11T22:37:00.761Z,3.63
2023-08-11T22:39:27.826Z,3.20
2023-08-11T22:41:54.847Z,3.40
2023-08-11T22:44:21.774Z,3.53
2023-08-11T22:46:48.601Z,3.77
2023-08-11T22:49:15.622Z,3.63
2023-08-11T22:51:42.717Z,4.10
2023-08-11T22:54:09.885Z,3.40
2023-08-11T22:56:36.665Z,3.47
2023-08-11T22:59:04.001Z,3.80
2023-08-11T23:01:31.057Z,3.83
2023-08-11T23:03:58.036Z,3.57
2023-08-11T23:06:25.389Z,3.90
2023-08-11T23:08:52.716Z,4.10
2023-08-11T23:11:19.564Z,3.77
2023-08-11T23:13:46.854Z,3.40
2023-08-11T23:16:14.160Z,3.80
2023-08-11T23:18:41.186Z,3.60
2023-08-11T23:21:08.123Z,3.70
2023-08-11T23:23:35.124Z,3.47
2023-08-11T23:26:02.007Z,3.67
2023-08-11T23:28:29.542Z,3.63
2023-08-11T23:30:56.593Z,3.70
2023-08-11T23:33:23.643Z,3.87
2023-08-11T23:35:50.610Z,4.20
2023-08-11T23:38:17.359Z,3.90
2023-08-11T23:40:44.458Z,3.50
2023-08-11T23:43:11.552Z,4.17
2023-08-11T23:45:38.549Z,4.00
2023-08-11T23:48:07.415Z,4.43
2023-08-11T23:50:34.865Z,4.10
2023-08-11T23:53:02.240Z,4.50
2023-08-11T23:55:29.328Z,4.47
2023-08-11T23:57:56.553Z,4.50
